Time;durP1;ratioP1;P1;durP2;ratioP2;P2;SDS_P1;SDS_P2;PMS_P1;PMS_P2;Temp;Humidity;BMP_temperature;BMP_pressure;BME280_temperature;BME280_humidity;BME280_pressure;Samples;Min_cycle;Max_cycle;Signal;HPM_P1;HPM_P2
2021/11/28 00:00:06;;;;;;;9.57;5.25;;;;;;;1.66;91.86;98689.81;695316;28;983;-50
2021/11/28 00:00:32;;;;;;;9.93;5.30;;;;;;;1.67;91.43;98694.06;695056;28;999;-54
2021/11/28 00:00:53;;;;;;;8.93;5.00;;;;;;;1.67;91.08;98694.06;697770;28;1277;-50
2021/11/28 00:01:15;;;;;;;10.82;5.32;;;;;;;1.66;91.34;98697.53;696630;28;1152;-51
2021/11/28 00:01:35;;;;;;;9.63;5.25;;;;;;;1.67;91.49;98683.78;697064;28;4454;-52
2021/11/28 00:01:56;;;;;;;7.73;4.73;;;;;;;1.66;91.99;98692.38;697581;28;772;-54
2021/11/28 00:02:20;;;;;;;8.63;4.95;;;;;;;1.65;92.05;98688.09;697491;28;3217;-51
2021/11/28 00:02:40;;;;;;;11.85;5.55;;;;;;;1.65;92.23;98684.66;696119;28;3605;-50
2021/11/28 00:03:01;;;;;;;10.00;5.30;;;;;;;1.66;91.68;98689.81;696207;28;1390;-52
2021/11/28 00:03:22;;;;;;;8.32;5.32;;;;;;;1.64;91.81;98688.94;695246;28;1075;-50
2021/11/28 00:03:42;;;;;;;8.60;5.07;;;;;;;1.64;91.92;98683.78;695614;28;1147;-53
2021/11/28 00:04:03;;;;;;;9.50;4.93;;;;;;;1.64;91.91;98688.09;695023;28;1307;-52
2021/11/28 00:04:23;;;;;;;10.70;5.10;;;;;;;1.64;91.42;98688.94;694820;28;4390;-51
2021/11/28 00:04:44;;;;;;;9.60;5.10;;;;;;;1.65;91.64;98690.66;693580;28;2088;-54
2021/11/28 00:05:06;;;;;;;9.05;5.20;;;;;;;1.65;92.22;98695.81;695150;28;2135;-52
2021/11/28 00:05:27;;;;;;;10.18;5.25;;;;;;;1.66;91.83;98689.81;689963;28;2062;-51
2021/11/28 00:06:02;;;;;;;10.15;5.13;;;;;;;1.67;91.66;98695.81;689999;28;2010;-52
2021/11/28 00:06:26;;;;;;;8.52;4.97;;;;;;;1.66;91.41;98692.38;689461;28;1344;-52
2021/11/28 00:07:09;;;;;;;8.43;5.03;;;;;;;1.66;91.77;98694.97;692710;28;1445;-53
2021/11/28 00:09:43;;;;;;;9.70;5.22;;;;;;;1.67;92.04;98696.66;691897;28;1211;-52
2021/11/28 00:10:56;;;;;;;10.50;5.30;;;;;;;1.66;91.35;98692.38;693708;28;1325;-53
2021/11/28 00:11:57;;;;;;;7.78;4.95;;;;;;;1.66;91.02;98694.97;699221;28;1043;-54
2021/11/28 00:12:46;;;;;;;9.23;5.05;;;;;;;1.69;91.29;98697.53;697811;28;1034;-54
2021/11/28 00:13:09;;;;;;;11.13;5.07;;;;;;;1.70;91.30;98700.94;697636;28;1149;-53
2021/11/28 00:14:05;;;;;;;11.10;5.50;;;;;;;1.69;92.90;98689.78;698083;28;1182;-55
2021/11/28 00:14:25;;;;;;;8.85;5.13;;;;;;;1.66;91.51;98697.53;694614;28;953;-53
2021/11/28 00:14:49;;;;;;;9.70;5.47;;;;;;;1.66;91.73;98692.38;695747;28;1319;-53
2021/11/28 00:15:14;;;;;;;9.10;5.32;;;;;;;1.66;91.74;98694.97;693428;28;2013;-51
2021/11/28 00:15:36;;;;;;;8.70;5.20;;;;;;;1.65;91.52;98688.09;692455;28;2238;-51
2021/11/28 00:15:59;;;;;;;10.02;5.45;;;;;;;1.67;91.92;98690.66;693151;28;1183;-53
2021/11/28 00:16:20;;;;;;;9.13;5.20;;;;;;;1.66;92.01;98697.53;693608;28;4334;-52
2021/11/28 00:16:41;;;;;;;9.40;5.73;;;;;;;1.66;91.67;98697.53;698058;28;1254;-51
2021/11/28 00:17:02;;;;;;;8.80;5.45;;;;;;;1.66;92.16;98702.69;698266;28;820;-55
2021/11/28 00:17:24;;;;;;;9.60;5.10;;;;;;;1.64;92.46;98691.50;698791;28;1011;-50
2021/11/28 00:17:46;;;;;;;8.40;5.05;;;;;;;1.61;92.61;98691.50;698746;28;1162;-52
2021/11/28 00:18:07;;;;;;;8.40;5.10;;;;;;;1.60;92.59;98692.38;700657;28;1161;-50
2021/11/28 00:18:29;;;;;;;9.15;5.30;;;;;;;1.62;92.67;98690.66;698019;28;3174;-53
2021/11/28 00:18:49;;;;;;;11.35;5.55;;;;;;;1.61;92.17;98683.78;697365;28;3804;-55
2021/11/28 00:19:10;;;;;;;10.03;5.57;;;;;;;1.62;91.56;98685.50;697799;28;1157;-53
2021/11/28 00:19:30;;;;;;;10.07;5.30;;;;;;;1.64;92.91;98690.66;697630;28;4413;-52
2021/11/28 00:19:51;;;;;;;9.63;5.57;;;;;;;1.63;93.75;98687.22;697027;28;1115;-53
2021/11/28 00:20:16;;;;;;;9.20;5.45;;;;;;;1.62;93.37;98680.34;698540;28;1119;-54
2021/11/28 00:20:36;;;;;;;9.98;5.18;;;;;;;1.61;93.26;98683.78;696813;28;1178;-52
2021/11/28 00:20:56;;;;;;;8.40;5.20;;;;;;;1.60;93.08;98686.38;697689;28;1297;-52
2021/11/28 00:21:17;;;;;;;8.55;5.20;;;;;;;1.58;93.37;98681.22;697208;28;1533;-52
2021/11/28 00:21:37;;;;;;;8.50;4.87;;;;;;;1.58;94.69;98686.38;696908;28;3062;-52
2021/11/28 00:21:58;;;;;;;8.73;5.10;;;;;;;1.58;93.94;98683.78;698053;28;3394;-52
2021/11/28 00:22:18;;;;;;;8.43;5.10;;;;;;;1.58;93.76;98680.34;697614;28;1331;-52
2021/11/28 00:22:40;;;;;;;9.50;5.13;;;;;;;1.55;93.53;98682.94;695796;28;4553;-51
2021/11/28 00:23:01;;;;;;;8.15;5.20;;;;;;;1.53;93.24;98685.50;696982;28;1432;-50
2021/11/28 00:23:21;;;;;;;8.03;5.33;;;;;;;1.53;92.92;98676.06;696712;28;1057;-53
2021/11/28 00:23:44;;;;;;;7.57;5.05;;;;;;;1.51;92.35;98688.09;698851;28;1237;-54
2021/11/28 00:24:05;;;;;;;8.52;5.28;;;;;;;1.50;92.79;98685.50;700482;28;2353;-51
2021/11/28 00:24:25;;;;;;;10.10;5.35;;;;;;;1.50;92.58;98682.94;700141;28;1316;-55
2021/11/28 00:24:46;;;;;;;9.60;5.13;;;;;;;1.50;92.68;98680.34;698949;28;1229;-53
2021/11/28 00:25:10;;;;;;;7.88;4.93;;;;;;;1.51;92.89;98682.94;700633;28;3595;-52
2021/11/28 00:25:30;;;;;;;8.43;4.93;;;;;;;1.52;93.37;98683.78;699768;28;4592;-51
2021/11/28 00:25:51;;;;;;;8.07;5.23;;;;;;;1.52;93.07;98688.94;700719;28;1146;-53
2021/11/28 00:26:12;;;;;;;8.18;5.03;;;;;;;1.53;93.14;98685.50;697057;28;1285;-51
2021/11/28 00:26:34;;;;;;;8.75;5.28;;;;;;;1.53;93.16;98690.66;698463;28;1206;-52
2021/11/28 00:26:54;;;;;;;8.50;5.20;;;;;;;1.54;93.30;98692.38;696364;28;1360;-52
2021/11/28 00:27:14;;;;;;;9.43;5.10;;;;;;;1.53;93.24;98690.66;698107;28;1178;-55
2021/11/28 00:27:36;;;;;;;8.30;4.70;;;;;;;1.52;93.34;98684.66;696751;28;1119;-51
2021/11/28 00:27:57;;;;;;;8.48;4.93;;;;;;;1.51;93.14;98682.94;694927;28;1279;-51
2021/11/28 00:28:17;;;;;;;7.95;5.30;;;;;;;1.51;94.52;98685.50;695383;28;3473;-52
2021/11/28 00:28:38;;;;;;;8.60;5.00;;;;;;;1.49;93.81;98689.78;693946;28;4573;-53
2021/11/28 00:29:00;;;;;;;9.38;5.50;;;;;;;1.50;93.38;98690.66;692707;28;1145;-52
2021/11/28 00:29:21;;;;;;;9.30;5.03;;;;;;;1.48;93.40;98687.22;687947;28;1389;-51
2021/11/28 00:29:42;;;;;;;8.73;4.90;;;;;;;1.45;93.58;98687.22;690432;28;1053;-54
2021/11/28 00:30:07;;;;;;;8.75;5.05;;;;;;;1.44;93.43;98685.50;691799;28;729;-51
2021/11/28 00:30:28;;;;;;;9.82;5.30;;;;;;;1.39;93.14;98682.94;691399;28;1347;-52
2021/11/28 00:30:49;;;;;;;11.02;5.45;;;;;;;1.35;92.95;98681.22;691242;28;1113;-51
2021/11/28 00:31:10;;;;;;;8.87;5.03;;;;;;;1.32;92.99;98684.63;692348;28;1211;-55
2021/11/28 00:31:30;;;;;;;9.38;5.32;;;;;;;1.32;92.88;98676.91;693788;28;4452;-52
2021/11/28 00:31:51;;;;;;;9.20;5.43;;;;;;;1.32;92.94;98686.38;693473;28;1423;-52
2021/11/28 00:32:11;;;;;;;9.60;5.53;;;;;;;1.32;92.78;98681.22;693785;28;1443;-51
2021/11/28 00:32:33;;;;;;;9.73;5.55;;;;;;;1.33;93.37;98682.91;693266;28;1084;-52
2021/11/28 00:32:54;;;;;;;9.77;5.23;;;;;;;1.31;93.93;98682.91;694831;28;1147;-54
2021/11/28 00:33:15;;;;;;;8.88;5.50;;;;;;;1.29;93.72;98682.06;689738;28;1443;-52
2021/11/28 00:33:37;;;;;;;9.65;5.40;;;;;;;1.31;93.47;98680.34;691648;28;1274;-52
2021/11/28 00:33:57;;;;;;;9.43;5.40;;;;;;;1.30;93.60;98680.34;693166;28;1358;-52
2021/11/28 00:34:17;;;;;;;8.40;5.20;;;;;;;1.30;93.97;98677.75;693176;28;1377;-55
2021/11/28 00:34:38;;;;;;;7.50;5.10;;;;;;;1.29;93.87;98682.06;692437;28;4387;-52
2021/11/28 00:34:58;;;;;;;8.37;5.00;;;;;;;1.29;94.31;98682.06;693367;28;2049;-52
2021/11/28 00:35:19;;;;;;;8.02;4.72;;;;;;;1.31;93.84;98682.91;694461;28;1469;-52
2021/11/28 00:35:39;;;;;;;8.23;5.23;;;;;;;1.33;93.37;98680.34;693461;28;1132;-52
2021/11/28 00:36:00;;;;;;;8.67;5.47;;;;;;;1.29;93.07;98683.78;691369;28;1229;-51
2021/11/28 00:36:20;;;;;;;9.60;5.17;;;;;;;1.29;93.34;98681.22;696249;28;1442;-52
2021/11/28 00:36:41;;;;;;;8.73;5.22;;;;;;;1.27;93.29;98680.34;694634;28;1196;-52
2021/11/28 00:37:02;;;;;;;8.70;5.47;;;;;;;1.29;93.25;98682.06;694472;28;1433;-50
2021/11/28 00:37:23;;;;;;;9.03;5.30;;;;;;;1.27;93.34;98682.91;689681;28;4546;-52
2021/11/28 00:37:44;;;;;;;9.80;5.50;;;;;;;1.25;93.50;98680.34;694348;28;1487;-51
2021/11/28 00:38:05;;;;;;;9.32;5.55;;;;;;;1.24;94.53;98677.78;693627;28;3373;-52
2021/11/28 00:38:26;;;;;;;9.43;5.60;;;;;;;1.23;94.58;98682.03;694374;28;1436;-51
2021/11/28 00:38:46;;;;;;;9.23;5.37;;;;;;;1.24;94.21;98681.19;695438;28;1285;-52
2021/11/28 00:39:07;;;;;;;10.20;5.35;;;;;;;1.24;94.10;98681.19;693698;28;1422;-55
2021/11/28 00:39:27;;;;;;;9.30;5.20;;;;;;;1.24;93.89;98678.63;698136;28;1091;-52
2021/11/28 00:39:49;;;;;;;10.27;5.50;;;;;;;1.25;94.14;98677.78;697186;28;1497;-55
2021/11/28 00:40:09;;;;;;;9.18;5.60;;;;;;;1.26;94.09;98682.06;698728;28;1201;-51
2021/11/28 00:40:30;;;;;;;8.60;5.50;;;;;;;1.27;94.39;98673.47;695482;28;4493;-52
2021/11/28 00:40:50;;;;;;;9.50;5.30;;;;;;;1.31;94.27;98679.50;696794;28;1115;-50
2021/11/28 00:41:11;;;;;;;9.00;5.30;;;;;;;1.32;94.02;98682.06;696681;28;3206;-54
2021/11/28 00:41:31;;;;;;;9.43;5.37;;;;;;;1.31;94.20;98679.50;694310;28;1322;-52
2021/11/28 00:41:52;;;;;;;9.23;5.10;;;;;;;1.31;94.08;98680.34;691710;28;1484;-55
2021/11/28 00:42:12;;;;;;;10.13;5.40;;;;;;;1.29;94.44;98671.78;691873;28;1169;-51
2021/11/28 00:42:33;;;;;;;10.45;5.07;;;;;;;1.30;94.72;98673.50;692121;28;3736;-51
2021/11/28 00:42:55;;;;;;;10.17;5.17;;;;;;;1.29;94.70;98676.91;691770;28;1187;-55
2021/11/28 00:43:16;;;;;;;10.07;5.47;;;;;;;1.29;94.52;98679.50;693063;28;1187;-50
2021/11/28 00:43:36;;;;;;;9.25;5.43;;;;;;;1.29;94.09;98676.06;691779;28;4445;-52
2021/11/28 00:43:57;;;;;;;9.00;5.33;;;;;;;1.27;94.33;98676.03;698366;28;1195;-53
2021/11/28 00:44:17;;;;;;;8.27;5.05;;;;;;;1.25;94.48;98677.78;697286;28;3187;-51
2021/11/28 00:44:38;;;;;;;9.17;5.37;;;;;;;1.25;94.57;98675.19;696005;28;3493;-50
2021/11/28 00:44:58;;;;;;;9.80;5.67;;;;;;;1.24;93.72;98673.47;695304;28;1843;-52
2021/11/28 00:45:18;;;;;;;9.23;5.50;;;;;;;1.25;94.24;98670.03;694455;28;1385;-51
2021/11/28 00:45:39;;;;;;;9.02;5.28;;;;;;;1.26;94.31;98676.91;694555;28;1337;-52
2021/11/28 00:45:59;;;;;;;9.20;5.67;;;;;;;1.26;94.29;98678.63;691971;28;1343;-51
2021/11/28 00:46:20;;;;;;;8.68;5.57;;;;;;;1.24;94.94;98677.78;691363;28;4752;-54
2021/11/28 00:46:42;;;;;;;9.02;5.28;;;;;;;1.23;94.91;98669.16;694578;28;1511;-54
2021/11/28 00:47:03;;;;;;;9.80;5.50;;;;;;;1.24;94.40;98678.63;695920;28;1100;-51
2021/11/28 00:47:24;;;;;;;9.18;5.25;;;;;;;1.25;94.00;98672.63;693381;28;1203;-53
2021/11/28 00:47:45;;;;;;;9.05;5.18;;;;;;;1.28;94.42;98675.19;693067;28;4315;-51
2021/11/28 00:48:05;;;;;;;9.10;5.07;;;;;;;1.28;94.58;98677.75;696297;28;1437;-53
2021/11/28 00:48:29;;;;;;;9.63;4.93;;;;;;;1.29;94.87;98673.50;693738;28;1206;-52
2021/11/28 00:48:49;;;;;;;10.25;5.18;;;;;;;1.31;95.12;98674.34;693018;28;1922;-52
2021/11/28 00:49:16;;;;;;;8.60;4.95;;;;;;;1.31;94.73;98682.91;692352;28;1185;-52
2021/11/28 00:49:38;;;;;;;7.38;4.95;;;;;;;1.31;95.39;98680.34;689937;28;4434;-53
2021/11/28 00:50:23;;;;;;;8.88;5.50;;;;;;;1.31;95.27;98680.34;693885;28;1153;-53
2021/11/28 00:50:45;;;;;;;10.60;5.70;;;;;;;1.57;93.28;98676.91;693963;28;3247;-51
2021/11/28 00:51:50;;;;;;;8.32;5.10;;;;;;;1.57;92.69;98687.22;692934;28;1290;-52
2021/11/28 00:52:10;;;;;;;10.05;5.30;;;;;;;1.47;93.48;98681.22;693290;28;1060;-50
2021/11/28 00:52:32;;;;;;;9.37;5.47;;;;;;;1.43;94.00;98688.94;693154;28;5553;-53
2021/11/28 00:52:54;;;;;;;10.27;6.00;;;;;;;1.40;93.78;98683.78;693723;28;1237;-51
2021/11/28 00:53:17;;;;;;;9.02;5.07;;;;;;;1.37;93.76;98684.63;697321;28;1339;-51
2021/11/28 00:53:37;;;;;;;9.07;5.25;;;;;;;1.36;93.90;98686.34;693801;28;1321;-50
2021/11/28 00:53:57;;;;;;;10.27;5.43;;;;;;;1.35;94.45;98683.78;692792;28;3187;-50
2021/11/28 00:54:18;;;;;;;10.15;5.32;;;;;;;1.33;94.23;98681.22;692987;28;3424;-55
2021/11/28 00:54:39;;;;;;;9.43;5.22;;;;;;;1.33;93.80;98686.34;693443;28;1384;-52
2021/11/28 00:55:00;;;;;;;8.77;5.60;;;;;;;1.34;94.27;98685.50;695686;28;1127;-51
2021/11/28 00:55:21;;;;;;;8.73;5.32;;;;;;;1.32;94.43;98687.22;695134;28;4744;-53
2021/11/28 00:55:42;;;;;;;9.73;5.60;;;;;;;1.31;94.49;98682.06;690882;28;1377;-50
2021/11/28 00:56:02;;;;;;;9.50;5.40;;;;;;;1.32;94.42;98683.78;690995;28;1203;-52
2021/11/28 00:56:23;;;;;;;8.20;5.40;;;;;;;1.32;94.59;98686.38;695256;28;1195;-53
2021/11/28 00:56:44;;;;;;;8.38;5.30;;;;;;;1.34;94.86;98689.78;691461;28;1338;-52
2021/11/28 00:57:05;;;;;;;9.13;5.35;;;;;;;1.35;94.63;98686.34;691904;28;2061;-51
2021/11/28 00:57:26;;;;;;;8.93;5.43;;;;;;;1.34;94.87;98690.66;690039;28;4349;-55
2021/11/28 00:57:47;;;;;;;8.05;5.22;;;;;;;1.34;94.57;98682.94;694120;28;2107;-50
2021/11/28 00:58:07;;;;;;;9.93;5.30;;;;;;;1.35;94.95;98687.19;693863;28;1329;-51
2021/11/28 00:58:30;;;;;;;9.73;5.18;;;;;;;1.35;94.83;98688.94;692112;28;4466;-50
2021/11/28 00:58:51;;;;;;;10.25;5.40;;;;;;;1.33;94.58;98691.50;693821;28;1519;-52
2021/11/28 00:59:12;;;;;;;7.82;5.25;;;;;;;1.33;95.81;98691.50;693378;28;1329;-53
2021/11/28 00:59:33;;;;;;;9.15;5.50;;;;;;;1.33;95.29;98685.47;694874;28;991;-54
2021/11/28 00:59:55;;;;;;;9.10;5.45;;;;;;;1.32;96.01;98687.22;696440;28;1548;-50
2021/11/28 01:00:15;;;;;;;9.18;5.40;;;;;;;1.31;95.39;98692.34;698077;28;1237;-51
2021/11/28 01:00:37;;;;;;;7.63;5.25;;;;;;;1.29;95.12;98687.22;696081;28;3568;-51
2021/11/28 01:00:58;;;;;;;9.52;5.20;;;;;;;1.28;95.06;98690.63;694824;28;1293;-51
2021/11/28 01:01:18;;;;;;;9.35;5.60;;;;;;;1.27;95.38;98686.34;692247;28;1489;-51
2021/11/28 01:01:39;;;;;;;9.30;5.28;;;;;;;1.26;95.02;98694.94;692349;28;4310;-51
2021/11/28 01:02:00;;;;;;;8.00;5.27;;;;;;;1.25;94.63;98690.63;691557;28;1508;-54
2021/11/28 01:02:22;;;;;;;8.68;5.50;;;;;;;1.24;95.71;98694.06;692480;28;1039;-53
2021/11/28 01:02:42;;;;;;;9.00;5.75;;;;;;;1.23;95.05;98691.50;694921;28;1376;-52
2021/11/28 01:03:03;;;;;;;8.50;5.40;;;;;;;1.23;95.49;98691.50;693468;28;1200;-54
2021/11/28 01:03:23;;;;;;;7.63;5.70;;;;;;;1.23;95.44;98696.63;689453;28;1476;-53
2021/11/28 01:03:44;;;;;;;7.77;5.57;;;;;;;1.24;95.09;98688.91;689386;28;3531;-50
2021/11/28 01:04:05;;;;;;;9.13;5.20;;;;;;;1.24;94.75;98694.06;689992;28;1278;-51
2021/11/28 01:04:25;;;;;;;10.13;5.33;;;;;;;1.25;95.42;98693.22;691013;28;4590;-53
2021/11/28 01:04:47;;;;;;;8.57;5.45;;;;;;;1.26;95.34;98692.38;691229;28;1449;-52
2021/11/28 01:05:08;;;;;;;7.10;5.15;;;;;;;1.27;95.54;98696.63;692233;28;1511;-53
2021/11/28 01:05:28;;;;;;;7.50;4.70;;;;;;;1.29;94.85;98694.94;692584;28;1085;-53
2021/11/28 01:05:49;;;;;;;7.85;4.78;;;;;;;1.28;95.60;98690.63;689599;28;1308;-54
2021/11/28 01:06:10;;;;;;;8.75;5.35;;;;;;;1.26;95.28;98691.50;690696;28;1152;-51
2021/11/28 01:06:30;;;;;;;8.55;5.47;;;;;;;1.24;95.13;98694.06;692414;28;1205;-52
2021/11/28 01:06:51;;;;;;;8.93;5.60;;;;;;;1.23;95.28;98689.75;691805;28;3021;-50
2021/11/28 01:07:11;;;;;;;8.48;5.20;;;;;;;1.22;94.60;98695.78;693225;28;3724;-52
2021/11/28 01:07:32;;;;;;;11.48;5.30;;;;;;;1.22;94.88;98694.91;692378;28;4487;-52
2021/11/28 01:07:53;;;;;;;10.47;5.43;;;;;;;1.20;95.29;98692.34;692048;28;1398;-52
2021/11/28 01:08:13;;;;;;;9.10;5.35;;;;;;;1.19;95.25;98691.50;689501;28;1191;-53
2021/11/28 01:08:34;;;;;;;8.27;5.00;;;;;;;1.18;95.36;98694.91;688634;28;1997;-53
2021/11/28 01:08:54;;;;;;;8.37;5.20;;;;;;;1.16;95.70;98690.63;690155;28;1302;-49
2021/11/28 01:09:15;;;;;;;8.35;5.10;;;;;;;1.15;95.10;98694.91;688893;28;1310;-49
2021/11/28 01:09:35;;;;;;;7.00;4.80;;;;;;;1.16;95.17;98695.75;690301;28;1151;-50
2021/11/28 01:09:56;;;;;;;7.28;5.40;;;;;;;1.15;95.16;98691.47;689526;28;1286;-53
2021/11/28 01:10:17;;;;;;;9.80;5.60;;;;;;;1.13;95.28;98688.91;688372;28;3493;-50
2021/11/28 01:10:38;;;;;;;9.00;5.43;;;;;;;1.12;95.01;98694.91;690918;28;4286;-51
2021/11/28 01:11:01;;;;;;;8.10;5.00;;;;;;;1.11;94.74;98693.19;691073;28;1514;-52
2021/11/28 01:11:23;;;;;;;8.40;5.10;;;;;;;1.13;95.10;98698.34;689914;28;1100;-51
2021/11/28 01:11:46;;;;;;;9.10;5.45;;;;;;;1.12;95.60;98691.47;695689;28;1686;-50
2021/11/28 01:12:08;;;;;;;8.57;5.30;;;;;;;1.11;95.77;98700.03;694114;28;1285;-51
2021/11/28 01:12:29;;;;;;;8.10;5.30;;;;;;;1.10;95.73;98696.63;691929;28;1135;-51
2021/11/28 01:12:49;;;;;;;9.93;5.35;;;;;;;1.09;95.63;98697.47;688486;28;1331;-51
2021/11/28 01:13:11;;;;;;;9.32;5.28;;;;;;;1.10;95.42;98695.78;688871;28;1949;-51
2021/11/28 01:13:32;;;;;;;7.88;5.10;;;;;;;1.11;95.30;98694.88;689108;28;4423;-51
2021/11/28 01:13:53;;;;;;;7.93;5.00;;;;;;;1.14;94.80;98705.22;684481;28;1180;-50
2021/11/28 01:14:14;;;;;;;9.43;5.10;;;;;;;1.15;95.06;98694.03;687874;28;1571;-50
2021/11/28 01:14:35;;;;;;;7.88;5.13;;;;;;;1.18;94.83;98699.22;691049;28;1074;-51
2021/11/28 01:14:55;;;;;;;8.93;5.38;;;;;;;1.20;94.73;98702.63;693537;28;1230;-50
2021/11/28 01:15:16;;;;;;;8.07;5.17;;;;;;;1.22;94.64;98703.50;691285;28;1174;-51
2021/11/28 01:15:36;;;;;;;8.63;5.10;;;;;;;1.24;94.89;98700.94;691559;28;1538;-52
2021/11/28 01:15:57;;;;;;;7.87;5.00;;;;;;;1.24;94.93;98704.34;693609;28;1538;-50
2021/11/28 01:16:19;;;;;;;8.07;5.10;;;;;;;1.27;94.60;98700.94;691889;28;1369;-51
2021/11/28 01:16:43;;;;;;;8.25;4.72;;;;;;;1.27;94.35;98706.94;690471;28;4830;-51
2021/11/28 01:17:04;;;;;;;9.73;5.15;;;;;;;1.26;94.11;98702.66;690471;28;1561;-54
2021/11/28 01:17:26;;;;;;;8.68;5.25;;;;;;;1.26;94.06;98707.81;692557;28;1197;-50
2021/11/28 01:17:46;;;;;;;8.95;5.13;;;;;;;1.27;93.63;98709.50;694528;28;982;-51
2021/11/28 01:18:07;;;;;;;8.82;5.00;;;;;;;1.25;93.75;98706.09;694530;28;1211;-52
2021/11/28 01:18:28;;;;;;;7.40;5.03;;;;;;;1.21;93.55;98701.78;693858;28;1321;-52
2021/11/28 01:18:52;;;;;;;9.27;5.07;;;;;;;1.20;94.24;98702.63;695347;28;1336;-50
2021/11/28 01:19:13;;;;;;;8.82;5.20;;;;;;;1.15;93.97;98701.75;695789;28;1198;-51
2021/11/28 01:19:33;;;;;;;7.97;5.40;;;;;;;1.13;93.95;98706.06;698357;28;4486;-50
2021/11/28 01:19:54;;;;;;;8.50;5.30;;;;;;;1.11;94.73;98705.19;698742;28;3545;-50
2021/11/28 01:20:14;;;;;;;7.28;5.18;;;;;;;1.09;95.09;98709.47;700021;28;1105;-52
2021/11/28 01:20:35;;;;;;;8.73;5.20;;;;;;;1.07;95.01;98708.63;698485;28;1067;-54
2021/11/28 01:20:55;;;;;;;9.98;5.22;;;;;;;1.06;94.64;98705.19;696078;28;1346;-52
2021/11/28 01:21:16;;;;;;;8.83;5.10;;;;;;;1.07;95.00;98706.06;696883;28;1500;-51
2021/11/28 01:21:37;;;;;;;7.93;5.10;;;;;;;1.06;94.70;98710.34;693837;28;1207;-51
2021/11/28 01:22:05;;;;;;;9.02;5.30;;;;;;;1.09;94.93;98709.47;696501;28;1394;-53
2021/11/28 01:22:26;;;;;;;9.43;5.38;;;;;;;1.10;96.50;98716.34;693701;28;4502;-54
2021/11/28 01:22:47;;;;;;;8.90;5.40;;;;;;;1.06;96.69;98709.50;693923;28;1191;-51
2021/11/28 01:23:07;;;;;;;8.40;5.40;;;;;;;1.08;95.75;98718.06;694088;28;3628;-51
2021/11/28 01:23:28;;;;;;;8.60;5.43;;;;;;;1.09;95.50;98714.63;694333;28;1149;-53
2021/11/28 01:23:49;;;;;;;8.53;5.40;;;;;;;1.06;95.56;98717.22;690663;28;1442;-52
2021/11/28 01:24:09;;;;;;;8.54;5.30;;;;;;;1.09;95.66;98719.78;686432;28;1430;-51
2021/11/28 01:24:30;;;;;;;8.07;5.27;;;;;;;1.08;95.27;98723.19;691527;28;1348;-53
2021/11/28 01:24:51;;;;;;;8.30;5.38;;;;;;;1.04;94.86;98717.22;696277;28;1407;-51
2021/11/28 01:25:13;;;;;;;8.30;5.03;;;;;;;1.02;94.95;98717.22;689772;28;1196;-55
2021/11/28 01:25:34;;;;;;;8.70;4.90;;;;;;;1.00;94.58;98718.91;689320;28;4431;-54
2021/11/28 01:25:55;;;;;;;8.60;5.18;;;;;;;0.98;94.86;98719.75;689919;28;1139;-53
2021/11/28 01:26:16;;;;;;;9.33;5.40;;;;;;;1.00;94.68;98720.63;691083;28;3358;-52
2021/11/28 01:26:36;;;;;;;9.07;5.00;;;;;;;1.06;94.80;98719.78;686159;28;1377;-53
2021/11/28 01:26:58;;;;;;;9.03;5.00;;;;;;;1.08;95.30;98723.19;688800;28;1156;-53
2021/11/28 01:27:18;;;;;;;8.63;5.20;;;;;;;1.04;95.07;98716.31;689339;28;1472;-51
2021/11/28 01:27:41;;;;;;;7.70;5.03;;;;;;;1.02;95.27;98724.03;694566;28;1165;-51
2021/11/28 01:28:01;;;;;;;7.40;5.00;;;;;;;0.99;95.15;98719.75;693338;28;1211;-53
2021/11/28 01:28:22;;;;;;;9.13;5.20;;;;;;;0.99;95.49;98714.59;695284;28;4777;-55
2021/11/28 01:28:43;;;;;;;7.80;5.05;;;;;;;1.00;95.27;98716.31;695410;28;1918;-52
2021/11/28 01:29:03;;;;;;;8.60;5.40;;;;;;;1.00;94.98;98713.75;694496;28;1182;-50
2021/11/28 01:29:24;;;;;;;9.77;5.63;;;;;;;0.99;95.22;98711.19;697632;28;3052;-51
2021/11/28 01:29:44;;;;;;;10.27;5.43;;;;;;;0.96;94.82;98714.59;693913;28;5016;-52
2021/11/28 01:30:09;;;;;;;8.68;5.20;;;;;;;0.99;94.50;98718.91;689679;28;1465;-52
2021/11/28 01:30:30;;;;;;;9.45;5.30;;;;;;;0.99;94.69;98719.75;694226;28;1382;-52
2021/11/28 01:30:51;;;;;;;9.15;5.45;;;;;;;0.99;94.92;98727.47;690472;28;1481;-52
2021/11/28 01:31:11;;;;;;;8.10;5.38;;;;;;;0.99;94.91;98717.16;689092;28;1269;-53
2021/11/28 01:31:32;;;;;;;8.57;5.45;;;;;;;1.01;95.08;98714.59;691191;28;4797;-53
2021/11/28 01:31:53;;;;;;;8.50;5.27;;;;;;;1.03;95.34;98715.47;691032;28;1229;-55
2021/11/28 01:32:15;;;;;;;9.27;5.38;;;;;;;1.02;95.68;98717.22;684957;28;1734;-51
2021/11/28 01:32:37;;;;;;;8.30;5.00;;;;;;;1.05;94.94;98718.06;685272;28;3068;-52
2021/11/28 01:32:58;;;;;;;7.38;5.15;;;;;;;1.06;95.49;98715.47;688831;28;3668;-54
2021/11/28 01:33:18;;;;;;;7.57;5.23;;;;;;;1.07;95.03;98711.22;686399;28;1467;-52
2021/11/28 01:33:38;;;;;;;8.60;5.50;;;;;;;1.04;94.97;98711.19;688677;28;1455;-51
2021/11/28 01:33:59;;;;;;;9.83;5.33;;;;;;;1.02;95.31;98712.06;692546;28;1234;-52
2021/11/28 01:34:19;;;;;;;9.85;5.13;;;;;;;0.99;95.10;98714.59;694273;28;4419;-51
2021/11/28 01:34:40;;;;;;;8.77;5.20;;;;;;;0.98;95.23;98712.91;693366;28;1254;-55
2021/11/28 01:35:07;;;;;;;9.05;5.28;;;;;;;0.97;95.41;98708.59;691015;28;1559;-50
2021/11/28 01:35:27;;;;;;;7.03;4.90;;;;;;;0.98;95.38;98712.91;694799;28;1530;-52
2021/11/28 01:35:48;;;;;;;9.10;5.27;;;;;;;1.00;95.09;98708.59;694010;28;3211;-52
2021/11/28 01:36:08;;;;;;;9.93;5.32;;;;;;;1.02;95.04;98711.19;692211;28;2330;-53
2021/11/28 01:36:29;;;;;;;9.68;5.15;;;;;;;1.09;95.06;98714.63;691158;28;1289;-52
2021/11/28 01:36:49;;;;;;;8.03;5.20;;;;;;;1.10;95.12;98711.22;693713;28;1447;-53
2021/11/28 01:37:10;;;;;;;7.53;4.90;;;;;;;1.12;95.15;98719.78;695413;28;1452;-54
2021/11/28 01:37:34;;;;;;;7.90;5.10;;;;;;;1.11;95.81;98713.78;690461;28;4514;-51
2021/11/28 01:37:54;;;;;;;8.57;5.10;;;;;;;1.10;95.59;98718.94;689423;28;1250;-54
2021/11/28 01:38:19;;;;;;;9.35;5.53;;;;;;;1.09;95.61;98714.63;689840;28;1406;-55
2021/11/28 01:38:40;;;;;;;9.70;5.55;;;;;;;1.05;95.38;98720.63;685449;28;1351;-54
2021/11/28 01:39:02;;;;;;;8.43;5.50;;;;;;;1.02;94.74;98714.63;688531;28;1900;-50
2021/11/28 01:39:23;;;;;;;9.05;5.13;;;;;;;1.00;94.61;98715.47;690575;28;3618;-53
2021/11/28 01:39:46;;;;;;;9.18;5.50;;;;;;;0.98;94.67;98712.03;691037;28;1437;-50
2021/11/28 01:40:10;;;;;;;8.32;5.38;;;;;;;0.96;95.09;98714.59;691854;28;1256;-52
2021/11/28 01:40:31;;;;;;;8.13;5.30;;;;;;;0.96;95.18;98718.91;691053;28;4512;-55
2021/11/28 01:40:53;;;;;;;8.13;5.30;;;;;;;0.99;94.60;98713.75;690541;28;1248;-51
2021/11/28 01:41:14;;;;;;;8.30;5.28;;;;;;;1.00;94.83;98718.91;691301;28;1365;-54
2021/11/28 01:41:35;;;;;;;8.27;5.07;;;;;;;1.02;95.09;98716.31;689622;28;1259;-51
2021/11/28 01:41:55;;;;;;;8.52;5.03;;;;;;;1.04;95.96;98721.47;689966;28;1341;-52
2021/11/28 01:42:42;;;;;;;10.93;5.40;;;;;;;1.00;95.43;98712.91;690452;28;3194;-51
2021/11/28 01:43:14;;;;;;;9.23;5.32;;;;;;;0.96;94.80;98717.16;696446;28;1137;-50
2021/11/28 01:43:34;;;;;;;7.15;5.07;;;;;;;0.96;94.72;98713.75;698321;28;4328;-50
2021/11/28 01:43:57;;;;;;;9.52;5.28;;;;;;;0.94;94.79;98716.31;695730;28;1371;-55
2021/11/28 01:44:18;;;;;;;8.88;5.15;;;;;;;0.92;94.75;98717.16;693747;28;1262;-51
2021/11/28 01:44:38;;;;;;;11.23;5.30;;;;;;;0.93;94.54;98721.44;694332;28;1176;-53
2021/11/28 01:45:01;;;;;;;8.75;5.22;;;;;;;0.92;94.81;98717.16;696496;28;1501;-50
2021/11/28 01:45:27;;;;;;;8.50;5.25;;;;;;;0.92;94.92;98723.16;694777;28;1531;-51
2021/11/28 01:45:50;;;;;;;8.52;5.47;;;;;;;0.89;94.93;98712.00;691106;28;2258;-51
2021/11/28 01:46:10;;;;;;;8.95;4.97;;;;;;;0.89;94.99;98714.56;695326;28;1525;-53
2021/11/28 01:46:33;;;;;;;8.50;5.28;;;;;;;0.89;95.52;98712.00;692674;28;4502;-53
2021/11/28 01:46:55;;;;;;;9.50;5.13;;;;;;;0.89;94.85;98714.56;695776;28;1607;-50
2021/11/28 01:47:15;;;;;;;10.27;5.35;;;;;;;0.88;95.33;98711.16;694169;28;1207;-53
2021/11/28 01:47:35;;;;;;;10.10;5.57;;;;;;;0.88;95.46;98716.28;694562;28;1327;-50
2021/11/28 01:48:00;;;;;;;9.00;5.30;;;;;;;0.87;95.29;98712.00;692128;28;1299;-54
2021/11/28 01:48:20;;;;;;;8.52;5.20;;;;;;;0.91;95.23;98716.28;688784;28;1411;-51
2021/11/28 01:48:41;;;;;;;8.05;5.07;;;;;;;0.94;95.29;98710.31;692070;28;3301;-52
2021/11/28 01:49:02;;;;;;;7.33;5.03;;;;;;;0.97;95.45;98712.88;692184;28;3825;-50
2021/11/28 01:49:23;;;;;;;8.20;5.10;;;;;;;0.97;95.31;98715.44;691438;28;4520;-54
2021/11/28 01:49:46;;;;;;;8.92;5.10;;;;;;;0.99;95.10;98719.75;692338;28;1420;-54
2021/11/28 01:50:07;;;;;;;9.53;5.30;;;;;;;1.00;95.51;98718.91;692977;28;1068;-51
2021/11/28 01:50:31;;;;;;;8.43;5.22;;;;;;;0.99;95.09;98716.31;691245;28;1178;-50